Time;durP1;ratioP1;P1;durP2;ratioP2;P2;SDS_P1;SDS_P2;PMS_P1;PMS_P2;Temp;Humidity;BMP_temperature;BMP_pressure;BME280_temperature;BME280_humidity;BME280_pressure;Samples;Min_cycle;Max_cycle;Signal;HPM_P1;HPM_P2
2023/01/29 00:01:21;;;;;;;31.65;10.75;;;;;;;;;;6290377;28;20178;-61
2023/01/29 00:04:22;;;;;;;28.42;10.55;;;;;;;;;;6290528;28;20052;-62
2023/01/29 00:07:23;;;;;;;29.83;10.70;;;;;;;;;;6293483;28;20136;-62
2023/01/29 00:10:24;;;;;;;33.97;10.98;;;;;;;;;;6294211;28;20041;-61
2023/01/29 00:13:25;;;;;;;28.85;10.57;;;;;;;;;;6293314;28;20044;-62
2023/01/29 00:16:26;;;;;;;30.90;11.48;;;;;;;;;;6293770;28;20055;-65
2023/01/29 00:19:27;;;;;;;31.60;11.93;;;;;;;;;;6294492;28;20044;-67
2023/01/29 00:22:29;;;;;;;35.70;11.95;;;;;;;;;;6292635;28;20047;-69
2023/01/29 00:25:30;;;;;;;;;;;;;;;;;;6294333;28;20048;-61
2023/01/29 00:28:30;;;;;;;30.30;10.13;;;;;;;;;;6293979;28;19924;-65
2023/01/29 00:31:31;;;;;;;33.35;10.73;;;;;;;;;;6292847;28;20187;-62
2023/01/29 00:34:32;;;;;;;28.70;10.20;;;;;;;;;;6293821;28;20499;-62
2023/01/29 00:37:32;;;;;;;28.25;10.13;;;;;;;;;;6292249;28;20079;-61
2023/01/29 00:44:56;;;;;;;28.45;10.23;;;;;;;;;;6285504;28;20045;-61
2023/01/29 00:47:32;;;;;;;30.67;11.02;;;;;;;;;;6280153;28;20048;-67
2023/01/29 00:50:32;;;;;;;30.38;10.77;;;;;;;;;;6294046;28;20048;-69
2023/01/29 00:53:33;;;;;;;25.92;10.25;;;;;;;;;;6292883;28;20051;-70
2023/01/29 00:56:35;;;;;;;30.90;11.60;;;;;;;;;;6292336;28;20143;-61
2023/01/29 00:59:36;;;;;;;28.17;11.02;;;;;;;;;;6293822;28;20052;-63
2023/01/29 01:06:03;;;;;;;25.83;10.43;;;;;;;;;;6288590;28;20133;-68
2023/01/29 01:12:24;;;;;;;28.42;10.93;;;;;;;;;;6287384;28;20140;-62
2023/01/29 01:15:28;;;;;;;26.42;10.45;;;;;;;;;;6266630;28;20118;-62
2023/01/29 01:18:29;;;;;;;29.23;12.68;;;;;;;;;;6283657;28;20052;-61
2023/01/29 01:21:31;;;;;;;35.92;11.85;;;;;;;;;;6276693;28;20056;-62
2023/01/29 01:24:32;;;;;;;24.40;11.13;;;;;;;;;;6291971;28;20080;-64
2023/01/29 01:27:33;;;;;;;28.33;10.50;;;;;;;;;;6291671;28;20502;-68
2023/01/29 01:30:34;;;;;;;32.65;10.75;;;;;;;;;;6283027;28;20124;-61
2023/01/29 01:33:36;;;;;;;28.30;10.55;;;;;;;;;;6285269;28;20106;-68
2023/01/29 01:36:36;;;;;;;24.50;10.07;;;;;;;;;;6282315;28;20041;-63
2023/01/29 01:39:37;;;;;;;23.33;8.82;;;;;;;;;;6284200;28;20521;-61
2023/01/29 01:42:39;;;;;;;21.63;9.10;;;;;;;;;;6282422;28;20049;-66
2023/01/29 01:45:41;;;;;;;23.77;9.27;;;;;;;;;;6290342;28;20051;-65
2023/01/29 01:48:43;;;;;;;24.52;9.35;;;;;;;;;;6282914;28;20045;-67
2023/01/29 01:51:48;;;;;;;27.00;8.65;;;;;;;;;;6279205;28;20049;-69
2023/01/29 01:54:50;;;;;;;22.73;9.38;;;;;;;;;;6285160;28;20552;-61
2023/01/29 01:57:55;;;;;;;22.30;8.50;;;;;;;;;;6280727;28;20131;-69
2023/01/29 02:00:57;;;;;;;20.70;7.82;;;;;;;;;;6282517;28;20044;-69
2023/01/29 02:10:47;;;;;;;18.77;6.65;;;;;;;;;;6281645;28;20075;-61
2023/01/29 02:13:52;;;;;;;17.35;7.63;;;;;;;;;;6265129;28;20067;-61
2023/01/29 02:16:53;;;;;;;18.50;6.70;;;;;;;;;;6273427;28;20048;-68
2023/01/29 02:20:13;;;;;;;18.83;7.32;;;;;;;;;;6290516;28;20132;-61
2023/01/29 02:23:47;;;;;;;16.83;6.50;;;;;;;;;;6265524;28;20076;-61
2023/01/29 02:26:48;;;;;;;16.52;6.60;;;;;;;;;;6269019;28;20127;-61
2023/01/29 02:30:07;;;;;;;14.88;6.20;;;;;;;;;;6270268;28;20052;-61
2023/01/29 02:33:29;;;;;;;15.13;5.70;;;;;;;;;;6264262;28;20553;-61
2023/01/29 02:36:50;;;;;;;14.07;5.57;;;;;;;;;;6284944;28;20056;-61
2023/01/29 02:40:03;;;;;;;17.58;5.95;;;;;;;;;;6271651;28;20160;-61
2023/01/29 02:43:28;;;;;;;14.18;5.75;;;;;;;;;;6263380;28;20053;-62
2023/01/29 02:47:01;;;;;;;15.85;6.10;;;;;;;;;;6265905;28;20095;-60
2023/01/29 02:50:25;;;;;;;13.95;5.75;;;;;;;;;;6266287;28;20052;-61
2023/01/29 02:53:37;;;;;;;13.10;4.90;;;;;;;;;;6264872;28;20491;-63
2023/01/29 02:57:03;;;;;;;12.02;4.60;;;;;;;;;;6265414;28;20048;-61
2023/01/29 03:00:07;;;;;;;15.10;5.03;;;;;;;;;;6255683;28;20048;-61
2023/01/29 03:03:19;;;;;;;15.05;5.15;;;;;;;;;;6264936;28;20056;-61
2023/01/29 03:06:27;;;;;;;13.75;5.60;;;;;;;;;;6266106;28;20429;-61
2023/01/29 03:09:39;;;;;;;13.68;5.65;;;;;;;;;;6264860;28;20059;-61
2023/01/29 03:12:42;;;;;;;;;;;;;;;;;;6270041;28;20049;-63
2023/01/29 03:15:50;;;;;;;13.27;5.57;;;;;;;;;;6239139;28;19924;-61
2023/01/29 03:18:58;;;;;;;13.30;5.43;;;;;;;;;;6271818;28;20414;-61
2023/01/29 03:22:03;;;;;;;14.82;5.78;;;;;;;;;;6273896;28;20944;-63
2023/01/29 03:32:02;;;;;;;11.05;3.92;;;;;;;;;;6295169;28;20461;-61
2023/01/29 03:35:08;;;;;;;11.15;4.43;;;;;;;;;;6278060;28;20043;-61
2023/01/29 03:38:10;;;;;;;10.60;4.32;;;;;;;;;;6293557;28;20064;-61
2023/01/29 03:41:21;;;;;;;;;;;;;;;;;;6272179;28;20102;-61
2023/01/29 03:44:46;;;;;;;10.55;4.78;;;;;;;;;;6269061;28;20004;-61
2023/01/29 03:47:53;;;;;;;11.43;5.43;;;;;;;;;;6281350;28;20062;-62
2023/01/29 03:51:23;;;;;;;13.93;5.75;;;;;;;;;;6286317;28;20056;-61
2023/01/29 03:54:33;;;;;;;13.57;6.55;;;;;;;;;;6267320;28;20438;-61
2023/01/29 03:57:39;;;;;;;14.05;6.00;;;;;;;;;;6268127;28;20395;-61
2023/01/29 04:00:46;;;;;;;17.30;6.40;;;;;;;;;;6270760;28;20038;-61
2023/01/29 04:03:56;;;;;;;13.10;5.70;;;;;;;;;;6271502;28;20410;-62
2023/01/29 04:07:05;;;;;;;12.68;5.97;;;;;;;;;;6294557;28;20410;-61
2023/01/29 04:10:10;;;;;;;13.35;5.88;;;;;;;;;;6273552;28;20048;-61
2023/01/29 04:13:13;;;;;;;13.73;5.90;;;;;;;;;;6269396;28;20248;-61
2023/01/29 04:16:20;;;;;;;14.32;5.78;;;;;;;;;;6267174;28;20041;-60
2023/01/29 04:19:22;;;;;;;13.88;5.57;;;;;;;;;;6265954;28;20637;-61
2023/01/29 04:22:34;;;;;;;16.70;5.93;;;;;;;;;;6266158;28;20045;-62
2023/01/29 04:25:45;;;;;;;13.38;5.82;;;;;;;;;;6267761;28;20063;-60
2023/01/29 04:28:57;;;;;;;10.63;4.88;;;;;;;;;;6271553;28;20081;-61
2023/01/29 04:32:14;;;;;;;10.98;5.53;;;;;;;;;;6267353;28;20069;-62
2023/01/29 04:35:42;;;;;;;13.45;6.03;;;;;;;;;;6267657;28;20135;-61
2023/01/29 04:39:24;;;;;;;12.65;5.53;;;;;;;;;;6263068;28;20051;-59
2023/01/29 04:42:32;;;;;;;13.05;6.25;;;;;;;;;;6165670;28;20061;-62
2023/01/29 04:45:58;;;;;;;16.27;6.80;;;;;;;;;;6188828;28;20054;-62
2023/01/29 04:49:11;;;;;;;16.42;7.43;;;;;;;;;;6268704;28;20573;-61
2023/01/29 04:52:57;;;;;;;17.90;8.40;;;;;;;;;;6253103;28;20072;-62
2023/01/29 04:56:07;;;;;;;13.63;6.70;;;;;;;;;;6288856;28;20410;-61
2023/01/29 04:59:14;;;;;;;13.10;5.72;;;;;;;;;;6282420;28;20045;-61
2023/01/29 05:02:14;;;;;;;13.43;7.22;;;;;;;;;;6268493;28;20041;-61
2023/01/29 05:05:18;;;;;;;13.45;6.22;;;;;;;;;;6270247;28;20150;-61
2023/01/29 05:08:21;;;;;;;14.35;6.13;;;;;;;;;;6265828;28;20045;-61
2023/01/29 05:11:24;;;;;;;13.93;6.93;;;;;;;;;;6287920;28;20051;-61
2023/01/29 05:14:26;;;;;;;15.35;6.32;;;;;;;;;;6281698;28;20040;-61
2023/01/29 05:17:27;;;;;;;13.18;5.90;;;;;;;;;;6275155;28;20064;-61
2023/01/29 05:20:33;;;;;;;14.45;5.70;;;;;;;;;;6285427;28;20084;-61
2023/01/29 05:23:34;;;;;;;13.45;5.47;;;;;;;;;;6267835;28;20491;-61
2023/01/29 05:29:56;;;;;;;11.43;5.38;;;;;;;;;;6263372;28;20507;-61
2023/01/29 05:32:56;;;;;;;9.43;5.45;;;;;;;;;;6271097;28;20056;-61
2023/01/29 05:35:58;;;;;;;10.90;5.28;;;;;;;;;;6265092;28;20057;-61
2023/01/29 05:38:59;;;;;;;14.18;5.25;;;;;;;;;;6276989;28;20140;-61
2023/01/29 05:42:00;;;;;;;12.45;5.32;;;;;;;;;;6285408;28;20128;-61
2023/01/29 05:45:01;;;;;;;14.32;5.45;;;;;;;;;;6266996;28;20044;-62
2023/01/29 05:48:02;;;;;;;10.45;5.40;;;;;;;;;;6266488;28;20056;-62
2023/01/29 05:51:03;;;;;;;13.02;5.85;;;;;;;;;;6277426;28;20049;-61
2023/01/29 05:54:04;;;;;;;13.88;5.93;;;;;;;;;;6274212;28;20098;-61
2023/01/29 05:57:05;;;;;;;13.05;6.25;;;;;;;;;;6266305;28;20060;-60
2023/01/29 06:00:07;;;;;;;12.93;6.68;;;;;;;;;;6289406;28;20056;-62
2023/01/29 06:03:07;;;;;;;12.98;6.32;;;;;;;;;;6268780;28;20080;-61
2023/01/29 06:06:08;;;;;;;11.35;4.93;;;;;;;;;;6266637;28;20078;-64
2023/01/29 06:09:10;;;;;;;13.23;5.93;;;;;;;;;;6279542;28;20059;-61
2023/01/29 06:12:11;;;;;;;12.52;5.35;;;;;;;;;;6268913;28;20048;-62
2023/01/29 06:15:14;;;;;;;11.57;5.78;;;;;;;;;;6266912;28;20544;-69
2023/01/29 06:18:15;;;;;;;10.23;5.03;;;;;;;;;;6263663;28;20048;-61
2023/01/29 06:21:15;;;;;;;11.43;5.35;;;;;;;;;;6290369;28;20055;-69
2023/01/29 06:24:16;;;;;;;10.02;4.60;;;;;;;;;;6269499;28;20084;-61
2023/01/29 06:27:16;;;;;;;12.73;5.70;;;;;;;;;;6287050;28;20051;-61
2023/01/29 06:30:17;;;;;;;12.63;5.63;;;;;;;;;;6274185;28;20053;-61
2023/01/29 06:33:17;;;;;;;10.65;5.22;;;;;;;;;;6282463;28;20145;-61
2023/01/29 06:36:18;;;;;;;12.55;6.05;;;;;;;;;;6283389;28;20045;-62
2023/01/29 06:39:19;;;;;;;13.98;6.05;;;;;;;;;;6269946;28;20041;-61
2023/01/29 06:42:26;;;;;;;13.07;5.97;;;;;;;;;;6262964;28;20095;-62
2023/01/29 06:45:26;;;;;;;11.10;6.20;;;;;;;;;;6278614;28;20131;-61
2023/01/29 06:48:27;;;;;;;12.73;5.90;;;;;;;;;;6266662;28;20064;-61
2023/01/29 06:51:28;;;;;;;15.25;5.75;;;;;;;;;;6290073;28;20367;-61
2023/01/29 06:54:28;;;;;;;14.13;6.15;;;;;;;;;;6293444;28;20048;-61
2023/01/29 06:57:29;;;;;;;14.10;6.28;;;;;;;;;;6270019;28;20044;-61
2023/01/29 07:00:30;;;;;;;14.63;7.35;;;;;;;;;;6272224;28;20768;-61
2023/01/29 07:03:30;;;;;;;15.35;6.80;;;;;;;;;;6268910;28;20060;-61
2023/01/29 07:06:32;;;;;;;13.80;6.18;;;;;;;;;;6279291;28;20075;-63
2023/01/29 07:09:32;;;;;;;11.25;5.28;;;;;;;;;;6289413;28;20127;-61
2023/01/29 07:12:33;;;;;;;14.10;6.35;;;;;;;;;;6271574;28;20048;-61
2023/01/29 07:15:34;;;;;;;14.98;5.82;;;;;;;;;;6267247;28;20078;-61
2023/01/29 07:18:36;;;;;;;12.80;6.03;;;;;;;;;;6267759;28;20632;-61
2023/01/29 07:21:36;;;;;;;11.65;5.55;;;;;;;;;;6279650;28;20504;-61
2023/01/29 07:24:37;;;;;;;14.15;5.35;;;;;;;;;;6270666;28;20083;-61
2023/01/29 07:27:37;;;;;;;12.32;5.20;;;;;;;;;;6269541;28;20051;-61
2023/01/29 07:30:38;;;;;;;11.85;5.28;;;;;;;;;;6275042;28;20052;-65
2023/01/29 07:33:38;;;;;;;12.48;5.65;;;;;;;;;;6268848;28;20049;-60
2023/01/29 07:36:39;;;;;;;11.35;6.07;;;;;;;;;;6268530;28;20140;-60
2023/01/29 07:39:39;;;;;;;14.50;7.03;;;;;;;;;;6269236;28;20053;-60
2023/01/29 07:42:42;;;;;;;13.52;7.18;;;;;;;;;;6278347;28;20412;-60
2023/01/29 07:45:43;;;;;;;18.52;7.53;;;;;;;;;;6287044;28;20047;-60
2023/01/29 07:48:43;;;;;;;16.60;7.63;;;;;;;;;;6284635;28;20407;-61
2023/01/29 07:51:44;;;;;;;15.73;8.00;;;;;;;;;;6278363;28;20471;-60
2023/01/29 07:54:45;;;;;;;18.83;8.30;;;;;;;;;;6269084;28;20136;-60
2023/01/29 07:57:46;;;;;;;14.85;7.32;;;;;;;;;;6269022;28;20053;-61
2023/01/29 08:00:46;;;;;;;15.10;8.30;;;;;;;;;;6267382;28;20037;-60
2023/01/29 08:03:47;;;;;;;17.25;7.55;;;;;;;;;;6257928;28;20041;-60
2023/01/29 08:06:47;;;;;;;17.60;7.35;;;;;;;;;;6271307;28;20080;-60
2023/01/29 08:09:48;;;;;;;14.48;6.72;;;;;;;;;;6289658;28;20049;-62
2023/01/29 08:13:00;;;;;;;15.23;5.97;;;;;;;;;;6290825;28;20598;-60
2023/01/29 08:16:02;;;;;;;13.52;6.25;;;;;;;;;;6289288;28;20798;-62
2023/01/29 08:19:03;;;;;;;15.32;5.95;;;;;;;;;;6293677;28;20411;-63
2023/01/29 08:22:05;;;;;;;14.98;6.38;;;;;;;;;;6292890;28;20053;-60
2023/01/29 08:25:05;;;;;;;14.20;6.45;;;;;;;;;;6294825;28;20139;-61
2023/01/29 08:28:06;;;;;;;13.20;5.72;;;;;;;;;;6294980;28;20052;-62
2023/01/29 08:31:14;;;;;;;11.68;5.75;;;;;;;;;;6293628;28;20194;-60
2023/01/29 08:34:15;;;;;;;14.98;6.55;;;;;;;;;;6294755;28;20072;-64
2023/01/29 08:37:15;;;;;;;15.95;6.65;;;;;;;;;;6294510;28;20052;-62
2023/01/29 08:40:16;;;;;;;19.17;8.18;;;;;;;;;;6293601;28;20071;-60
2023/01/29 08:43:17;;;;;;;20.33;9.80;;;;;;;;;;6294217;28;20118;-61
2023/01/29 08:46:17;;;;;;;21.60;9.63;;;;;;;;;;6294646;28;20048;-61
2023/01/29 08:49:18;;;;;;;22.58;10.45;;;;;;;;;;6278657;28;20086;-62
2023/01/29 08:52:18;;;;;;;22.02;10.05;;;;;;;;;;6283780;28;20041;-60
2023/01/29 08:55:19;;;;;;;21.45;9.35;;;;;;;;;;6277390;28;20072;-61
2023/01/29 08:58:20;;;;;;;20.98;9.80;;;;;;;;;;6286895;28;20391;-62
2023/01/29 09:01:20;;;;;;;25.30;10.82;;;;;;;;;;6293177;28;20048;-61
2023/01/29 09:04:21;;;;;;;27.90;11.50;;;;;;;;;;6287482;28;20040;-61
2023/01/29 09:07:22;;;;;;;28.63;12.32;;;;;;;;;;6290836;28;20048;-62
2023/01/29 09:10:23;;;;;;;28.02;11.43;;;;;;;;;;6292557;28;20120;-61
2023/01/29 09:13:23;;;;;;;29.40;12.10;;;;;;;;;;6282210;28;20505;-61
2023/01/29 09:16:24;;;;;;;27.17;11.38;;;;;;;;;;6293877;28;20048;-61
2023/01/29 09:19:24;;;;;;;27.65;12.10;;;;;;;;;;6265015;28;20149;-61
2023/01/29 09:22:25;;;;;;;26.00;11.55;;;;;;;;;;6293356;28;20044;-66
2023/01/29 09:25:25;;;;;;;26.25;11.82;;;;;;;;;;6293339;28;20381;-62
2023/01/29 09:28:26;;;;;;;24.58;11.18;;;;;;;;;;6291724;28;20506;-61
2023/01/29 09:31:27;;;;;;;24.17;11.60;;;;;;;;;;6292325;28;20052;-63
2023/01/29 09:34:27;;;;;;;28.95;12.48;;;;;;;;;;6292806;28;20492;-61
2023/01/29 09:37:28;;;;;;;28.67;11.70;;;;;;;;;;6293084;28;20537;-62
2023/01/29 09:41:00;;;;;;;28.33;13.15;;;;;;;;;;6292115;28;20098;-63
2023/01/29 09:44:14;;;;;;;26.88;12.77;;;;;;;;;;6280397;28;20195;-62
2023/01/29 09:47:17;;;;;;;27.20;12.75;;;;;;;;;;6293481;28;20057;-64
2023/01/29 09:50:29;;;;;;;29.98;12.88;;;;;;;;;;6278906;28;20087;-64
2023/01/29 09:53:45;;;;;;;29.03;12.70;;;;;;;;;;6275481;28;20044;-63
2023/01/29 09:56:49;;;;;;;22.23;10.82;;;;;;;;;;6251168;28;20054;-65
2023/01/29 09:59:50;;;;;;;22.85;10.75;;;;;;;;;;6284722;28;20049;-62
2023/01/29 10:03:24;;;;;;;25.23;11.35;;;;;;;;;;6282481;28;20110;-63
2023/01/29 10:06:27;;;;;;;19.08;8.93;;;;;;;;;;6285202;28;20053;-69
2023/01/29 10:09:57;;;;;;;16.80;7.90;;;;;;;;;;6284331;28;20503;-65
2023/01/29 10:13:09;;;;;;;13.60;6.85;;;;;;;;;;6267918;28;20045;-64
2023/01/29 10:16:17;;;;;;;18.35;8.63;;;;;;;;;;6286973;28;20155;-61
2023/01/29 10:19:24;;;;;;;17.02;7.97;;;;;;;;;;6284921;28;20046;-61
2023/01/29 10:22:43;;;;;;;19.80;8.77;;;;;;;;;;6288138;28;20497;-62
2023/01/29 10:25:45;;;;;;;15.77;6.95;;;;;;;;;;6288971;28;20131;-63
2023/01/29 10:28:49;;;;;;;17.95;8.13;;;;;;;;;;6285111;28;20048;-63
2023/01/29 10:31:55;;;;;;;14.93;6.85;;;;;;;;;;6288481;28;20052;-63
2023/01/29 10:35:12;;;;;;;16.23;6.95;;;;;;;;;;6288959;28;20486;-62
2023/01/29 10:38:42;;;;;;;16.85;6.63;;;;;;;;;;6286952;28;20128;-63
2023/01/29 10:42:05;;;;;;;12.45;6.00;;;;;;;;;;6289282;28;20055;-62
2023/01/29 10:45:27;;;;;;;12.35;6.03;;;;;;;;;;6288576;28;20459;-63
2023/01/29 10:48:57;;;;;;;18.77;9.18;;;;;;;;;;6288885;28;20086;-62
2023/01/29 10:52:32;;;;;;;42.45;14.57;;;;;;;;;;6288052;28;20461;-63
2023/01/29 10:56:13;;;;;;;15.50;8.40;;;;;;;;;;6290170;28;20050;-63
2023/01/29 10:59:42;;;;;;;16.08;8.27;;;;;;;;;;6252310;28;20145;-63
2023/01/29 11:02:45;;;;;;;13.75;7.25;;;;;;;;;;6277070;28;20048;-62
2023/01/29 11:06:14;;;;;;;15.80;7.35;;;;;;;;;;6285798;28;20406;-63
2023/01/29 11:09:42;;;;;;;12.23;6.95;;;;;;;;;;6276289;28;20159;-70
2023/01/29 11:12:44;;;;;;;14.45;7.00;;;;;;;;;;6270888;28;20045;-65
2023/01/29 11:15:45;;;;;;;15.18;7.70;;;;;;;;;;6272694;28;20049;-64
2023/01/29 11:18:51;;;;;;;16.00;7.53;;;;;;;;;;6286121;28;20075;-63
2023/01/29 11:22:00;;;;;;;16.20;8.02;;;;;;;;;;6284167;28;20388;-62
2023/01/29 11:25:15;;;;;;;17.92;8.95;;;;;;;;;;6284531;28;20045;-61
2023/01/29 11:28:34;;;;;;;17.27;8.48;;;;;;;;;;6287823;28;20040;-69
2023/01/29 11:31:37;;;;;;;18.55;10.00;;;;;;;;;;6290375;28;20411;-62
2023/01/29 11:35:01;;;;;;;19.35;10.07;;;;;;;;;;6257661;28;20044;-62
2023/01/29 11:38:23;;;;;;;24.05;11.05;;;;;;;;;;6268377;28;20426;-61
2023/01/29 11:41:24;;;;;;;26.90;11.93;;;;;;;;;;6270496;28;20131;-60
2023/01/29 11:44:38;;;;;;;27.02;12.13;;;;;;;;;;6272086;28;20051;-62
2023/01/29 11:47:39;;;;;;;28.52;12.38;;;;;;;;;;6273154;28;20419;-60
2023/01/29 11:50:39;;;;;;;23.77;11.30;;;;;;;;;;6272334;28;20049;-62
2023/01/29 11:53:51;;;;;;;24.60;11.02;;;;;;;;;;6270416;28;20129;-62
2023/01/29 11:56:52;;;;;;;25.08;10.43;;;;;;;;;;6269982;28;20049;-61
2023/01/29 11:59:55;;;;;;;25.52;10.70;;;;;;;;;;6271028;28;20049;-61
2023/01/29 12:03:01;;;;;;;25.83;10.98;;;;;;;;;;6268294;28;20410;-62
2023/01/29 12:06:21;;;;;;;20.80;9.98;;;;;;;;;;6269967;28;20056;-61
2023/01/29 12:09:28;;;;;;;26.15;12.13;;;;;;;;;;6271241;28;20423;-62
2023/01/29 12:12:31;;;;;;;32.72;16.25;;;;;;;;;;6267521;28;20044;-61
2023/01/29 12:15:31;;;;;;;21.95;10.20;;;;;;;;;;6269293;28;20049;-66
2023/01/29 12:18:48;;;;;;;20.13;9.07;;;;;;;;;;6270060;28;20091;-60
2023/01/29 12:21:56;;;;;;;18.50;8.73;;;;;;;;;;6273146;28;20055;-64
2023/01/29 12:25:08;;;;;;;19.30;8.13;;;;;;;;;;6267367;28;20048;-62
2023/01/29 12:28:11;;;;;;;19.50;8.90;;;;;;;;;;6268065;28;20118;-62
2023/01/29 12:31:37;;;;;;;16.50;7.70;;;;;;;;;;6275911;28;20061;-66
2023/01/29 12:35:05;;;;;;;16.05;6.93;;;;;;;;;;6266626;28;20049;-61
2023/01/29 12:38:15;;;;;;;15.98;7.70;;;;;;;;;;6266269;28;20053;-62
2023/01/29 12:41:34;;;;;;;18.65;7.20;;;;;;;;;;6274683;28;20056;-61
2023/01/29 12:44:45;;;;;;;17.13;7.88;;;;;;;;;;6266919;28;20059;-61
2023/01/29 12:47:56;;;;;;;22.75;8.30;;;;;;;;;;6271230;28;20075;-62
2023/01/29 12:51:05;;;;;;;17.23;7.97;;;;;;;;;;6270163;28;20049;-59
2023/01/29 12:54:10;;;;;;;26.30;11.68;;;;;;;;;;6264657;28;20454;-62
2023/01/29 12:57:22;;;;;;;17.98;7.53;;;;;;;;;;6269802;28;20777;-62
2023/01/29 13:00:25;;;;;;;;;;;;;;;;;;6268412;28;20179;-63
2023/01/29 13:03:28;;;;;;;20.58;8.40;;;;;;;;;;6264373;28;19933;-63
2023/01/29 13:06:35;;;;;;;17.08;8.55;;;;;;;;;;6272642;28;20045;-64
2023/01/29 13:09:38;;;;;;;17.13;7.47;;;;;;;;;;6261768;28;20139;-64
2023/01/29 13:12:44;;;;;;;21.40;9.32;;;;;;;;;;6257944;28;20091;-63
2023/01/29 13:15:46;;;;;;;18.10;8.40;;;;;;;;;;6257602;28;20169;-63
2023/01/29 13:18:59;;;;;;;18.95;8.18;;;;;;;;;;6260475;28;20831;-63
2023/01/29 13:22:04;;;;;;;22.75;9.45;;;;;;;;;;6258250;28;20498;-63
2023/01/29 13:25:11;;;;;;;18.65;7.97;;;;;;;;;;6240045;28;20045;-63
2023/01/29 13:28:20;;;;;;;18.80;8.63;;;;;;;;;;6261220;28;20087;-64
2023/01/29 13:31:27;;;;;;;21.38;8.13;;;;;;;;;;6256272;28;20072;-63
2023/01/29 13:34:32;;;;;;;17.35;8.57;;;;;;;;;;6255414;28;20041;-65
2023/01/29 13:37:35;;;;;;;20.92;7.47;;;;;;;;;;6258266;28;20492;-63
2023/01/29 13:40:37;;;;;;;18.40;8.68;;;;;;;;;;6258734;28;20048;-63
2023/01/29 13:43:40;;;;;;;23.70;11.13;;;;;;;;;;6257283;28;20073;-64
2023/01/29 13:46:48;;;;;;;25.02;9.85;;;;;;;;;;6261370;28;20045;-63
2023/01/29 13:49:56;;;;;;;15.95;7.40;;;;;;;;;;6262017;28;21398;-63
2023/01/29 13:53:00;;;;;;;22.08;9.85;;;;;;;;;;6260794;28;20052;-66
2023/01/29 13:56:32;;;;;;;18.15;7.78;;;;;;;;;;6258428;28;20049;-63
2023/01/29 13:59:50;;;;;;;17.27;7.15;;;;;;;;;;6258623;28;20059;-64
2023/01/29 14:02:54;;;;;;;15.07;6.90;;;;;;;;;;6258505;28;20144;-63
2023/01/29 14:06:01;;;;;;;14.90;7.15;;;;;;;;;;6259286;28;20048;-63
2023/01/29 14:09:01;;;;;;;16.27;6.80;;;;;;;;;;6259180;28;20128;-64
2023/01/29 14:12:21;;;;;;;14.98;5.82;;;;;;;;;;6256860;28;20403;-61
2023/01/29 14:15:24;;;;;;;16.25;7.03;;;;;;;;;;6258337;28;20588;-66
2023/01/29 14:18:28;;;;;;;13.57;6.40;;;;;;;;;;6240139;28;20059;-62
2023/01/29 14:21:32;;;;;;;17.17;7.70;;;;;;;;;;6257885;28;20509;-65
2023/01/29 14:24:33;;;;;;;18.55;7.00;;;;;;;;;;6239081;28;20791;-63
2023/01/29 14:27:35;;;;;;;16.63;6.93;;;;;;;;;;6259865;28;20052;-63
2023/01/29 14:30:37;;;;;;;19.10;7.93;;;;;;;;;;6258281;28;20078;-63
2023/01/29 14:33:39;;;;;;;18.73;7.85;;;;;;;;;;6257706;28;20403;-64
2023/01/29 14:36:42;;;;;;;16.98;7.47;;;;;;;;;;6259641;28;20105;-63
2023/01/29 14:39:49;;;;;;;;;;;;;;;;;;6257166;28;20735;-63
2023/01/29 14:43:06;;;;;;;16.25;7.03;;;;;;;;;;6256917;28;19931;-63
2023/01/29 14:46:43;;;;;;;18.38;7.22;;;;;;;;;;6258264;28;20044;-63
2023/01/29 14:49:58;;;;;;;19.02;7.68;;;;;;;;;;6227770;28;20693;-63
2023/01/29 14:53:26;;;;;;;18.70;7.70;;;;;;;;;;6255510;28;20432;-63
2023/01/29 14:56:39;;;;;;;15.85;7.22;;;;;;;;;;6256209;28;20052;-64
2023/01/29 14:59:54;;;;;;;19.63;7.72;;;;;;;;;;6259736;28;20052;-62
2023/01/29 15:02:57;;;;;;;22.55;9.23;;;;;;;;;;6255537;28;20767;-63
2023/01/29 15:05:59;;;;;;;17.52;7.82;;;;;;;;;;6263284;28;20484;-63
2023/01/29 15:09:25;;;;;;;15.52;7.80;;;;;;;;;;6264447;28;20645;-63
2023/01/29 15:12:31;;;;;;;25.70;10.25;;;;;;;;;;6262095;28;21285;-63
2023/01/29 15:15:35;;;;;;;27.85;12.93;;;;;;;;;;6263726;28;20060;-64
2023/01/29 15:18:41;;;;;;;23.70;10.20;;;;;;;;;;6261825;28;20053;-64
2023/01/29 15:22:15;;;;;;;31.75;13.13;;;;;;;;;;6262014;28;20049;-63
2023/01/29 15:25:20;;;;;;;23.90;9.98;;;;;;;;;;6217532;28;20052;-63
2023/01/29 15:28:21;;;;;;;18.38;8.18;;;;;;;;;;6263998;28;20122;-63
2023/01/29 15:31:21;;;;;;;19.55;8.70;;;;;;;;;;6262674;28;20052;-63
2023/01/29 15:34:22;;;;;;;20.95;7.95;;;;;;;;;;6262176;28;20048;-64
2023/01/29 15:37:29;;;;;;;17.90;7.30;;;;;;;;;;6265068;28;20048;-63
2023/01/29 15:40:31;;;;;;;19.58;7.50;;;;;;;;;;6264426;28;20052;-62
2023/01/29 15:43:36;;;;;;;18.42;8.32;;;;;;;;;;6262253;28;20076;-64
2023/01/29 15:46:40;;;;;;;19.52;8.40;;;;;;;;;;6262496;28;20091;-63
2023/01/29 15:49:41;;;;;;;18.42;8.30;;;;;;;;;;6257570;28;20521;-63
2023/01/29 15:52:42;;;;;;;29.98;13.45;;;;;;;;;;6260185;28;20049;-69
2023/01/29 15:55:43;;;;;;;27.48;13.07;;;;;;;;;;6265789;28;20059;-66
2023/01/29 15:58:47;;;;;;;41.67;21.58;;;;;;;;;;6259263;28;20045;-68
2023/01/29 16:01:48;;;;;;;25.90;11.25;;;;;;;;;;6261330;28;20059;-63
2023/01/29 16:04:49;;;;;;;24.35;10.02;;;;;;;;;;6268832;28;20936;-69
2023/01/29 16:07:50;;;;;;;21.98;8.82;;;;;;;;;;6270110;28;20095;-61
2023/01/29 16:10:58;;;;;;;22.05;7.90;;;;;;;;;;6276913;28;20053;-62
2023/01/29 16:13:59;;;;;;;19.83;9.32;;;;;;;;;;6264219;28;20060;-61
2023/01/29 16:17:23;;;;;;;20.60;8.60;;;;;;;;;;6268705;28;20063;-60
2023/01/29 16:20:48;;;;;;;24.95;11.23;;;;;;;;;;6274105;28;20715;-61
2023/01/29 16:23:55;;;;;;;32.47;15.55;;;;;;;;;;6266609;28;20041;-61
2023/01/29 16:27:05;;;;;;;22.00;9.32;;;;;;;;;;6251817;28;20041;-61
2023/01/29 16:30:07;;;;;;;21.42;9.20;;;;;;;;;;6250159;28;20852;-60
2023/01/29 16:33:12;;;;;;;20.13;8.95;;;;;;;;;;6250551;28;20651;-59
2023/01/29 16:36:25;;;;;;;23.00;9.95;;;;;;;;;;6251714;28;20077;-63
2023/01/29 16:39:37;;;;;;;24.60;10.98;;;;;;;;;;6259412;28;20057;-62
2023/01/29 16:42:39;;;;;;;25.60;10.77;;;;;;;;;;6251548;28;20053;-63
2023/01/29 16:45:40;;;;;;;22.05;8.57;;;;;;;;;;6252397;28;20463;-62
2023/01/29 16:48:40;;;;;;;42.20;19.45;;;;;;;;;;6248764;28;20046;-63
2023/01/29 16:51:41;;;;;;;20.52;10.35;;;;;;;;;;6257308;28;20852;-62
2023/01/29 16:54:42;;;;;;;32.08;15.80;;;;;;;;;;6255466;28;20045;-63
2023/01/29 16:57:46;;;;;;;21.45;10.40;;;;;;;;;;6249767;28;20045;-63
2023/01/29 17:00:54;;;;;;;18.35;7.47;;;;;;;;;;6252062;28;20184;-61
2023/01/29 17:04:09;;;;;;;21.58;8.57;;;;;;;;;;6250633;28;20056;-60
2023/01/29 17:07:17;;;;;;;20.27;7.68;;;;;;;;;;6249276;28;20107;-64
2023/01/29 17:10:20;;;;;;;24.10;10.93;;;;;;;;;;6254004;28;20080;-60
2023/01/29 17:13:36;;;;;;;25.38;12.27;;;;;;;;;;6253419;28;20403;-63
2023/01/29 17:16:53;;;;;;;26.05;12.50;;;;;;;;;;6243591;28;20504;-65
2023/01/29 17:19:53;;;;;;;25.85;10.88;;;;;;;;;;6253813;28;20545;-62
2023/01/29 17:22:54;;;;;;;27.10;12.02;;;;;;;;;;6252642;28;20045;-62
2023/01/29 17:25:54;;;;;;;21.20;9.77;;;;;;;;;;6252867;28;20059;-64
2023/01/29 17:28:55;;;;;;;22.73;9.88;;;;;;;;;;6228636;28;20056;-61
2023/01/29 17:31:58;;;;;;;35.75;16.45;;;;;;;;;;6251194;28;20062;-64
2023/01/29 17:34:59;;;;;;;35.67;16.77;;;;;;;;;;6230127;28;20044;-63
2023/01/29 17:38:01;;;;;;;34.78;15.68;;;;;;;;;;6256780;28;20056;-63
2023/01/29 17:41:13;;;;;;;29.80;12.77;;;;;;;;;;6251140;28;20048;-65
2023/01/29 17:44:14;;;;;;;;;;;;;;;;;;6249707;28;20053;-65
2023/01/29 17:47:14;;;;;;;36.95;14.00;;;;;;;;;;6248558;28;19932;-61
2023/01/29 17:50:24;;;;;;;31.05;13.18;;;;;;;;;;6244722;28;20048;-61
2023/01/29 17:53:25;;;;;;;28.13;11.98;;;;;;;;;;6251492;28;20094;-65
2023/01/29 17:56:26;;;;;;;32.25;13.75;;;;;;;;;;6244763;28;20107;-61
2023/01/29 17:59:32;;;;;;;41.67;16.17;;;;;;;;;;6253094;28;20049;-62
2023/01/29 18:02:34;;;;;;;157.23;48.63;;;;;;;;;;6250116;28;20452;-62
2023/01/29 18:05:34;;;;;;;30.45;12.57;;;;;;;;;;6251583;28;20041;-63
2023/01/29 18:08:37;;;;;;;56.10;18.83;;;;;;;;;;6244572;28;20474;-62
2023/01/29 18:11:37;;;;;;;60.85;21.85;;;;;;;;;;6237591;28;21063;-63
2023/01/29 18:14:38;;;;;;;80.05;28.00;;;;;;;;;;6238713;28;20049;-63
2023/01/29 18:17:39;;;;;;;26.80;12.07;;;;;;;;;;6246405;28;20057;-64
2023/01/29 18:20:40;;;;;;;62.85;18.52;;;;;;;;;;6252147;28;20045;-63
2023/01/29 18:23:40;;;;;;;27.63;11.60;;;;;;;;;;6250781;28;20091;-62
2023/01/29 18:26:41;;;;;;;26.95;12.15;;;;;;;;;;6251170;28;20498;-65
2023/01/29 18:29:42;;;;;;;47.55;17.55;;;;;;;;;;6245478;28;20045;-66
2023/01/29 18:32:42;;;;;;;29.08;12.30;;;;;;;;;;6247567;28;20049;-64
2023/01/29 18:35:44;;;;;;;31.55;13.23;;;;;;;;;;6250545;28;20055;-65
2023/01/29 18:38:45;;;;;;;35.63;13.25;;;;;;;;;;6242976;28;20059;-66
2023/01/29 18:41:45;;;;;;;30.70;15.00;;;;;;;;;;6251007;28;20520;-66
2023/01/29 18:44:46;;;;;;;37.17;14.63;;;;;;;;;;6251232;28;20063;-62
2023/01/29 18:47:48;;;;;;;26.45;11.80;;;;;;;;;;6253456;28;20592;-63